createdAt,value
2017-05-04T00:00:05.655Z,20.7
2017-05-04T00:02:07.876Z,20.7
2017-05-04T00:04:05.817Z,20.7
2017-05-04T00:06:05.521Z,20.8
2017-05-04T00:08:05.211Z,20.8
2017-05-04T00:10:05.351Z,20.7
2017-05-04T00:12:05.092Z,20.7
2017-05-04T00:14:04.813Z,20.7
2017-05-04T00:16:07.854Z,20.7
2017-05-04T00:18:12.344Z,20.7
2017-05-04T00:20:05.037Z,20.8
2017-05-04T00:22:05.408Z,20.7
2017-05-04T00:24:05.110Z,20.7
2017-05-04T00:26:05.822Z,20.7
2017-05-04T00:28:06.694Z,20.7
2017-05-04T00:30:04.980Z,20.7
2017-05-04T00:32:07.216Z,20.7
2017-05-04T00:34:05.318Z,20.7
2017-05-04T00:36:05.057Z,20.7
2017-05-04T00:38:07.357Z,20.7
2017-05-04T00:40:05.407Z,20.7
2017-05-04T00:42:05.405Z,20.8
2017-05-04T00:44:04.680Z,20.7
2017-05-04T00:46:06.269Z,20.7
2017-05-04T00:48:04.987Z,20.7
2017-05-04T00:50:05.240Z,20.7
2017-05-04T00:52:05.229Z,20.7
2017-05-04T00:54:05.528Z,20.7
2017-05-04T00:56:10.336Z,20.7
2017-05-04T00:58:11.135Z,20.7
2017-05-04T01:00:04.877Z,20.7
2017-05-04T01:02:05.622Z,20.7
2017-05-04T01:04:05.700Z,20.7
2017-05-04T01:06:04.976Z,20.7
2017-05-04T01:08:04.740Z,20.7
2017-05-04T01:10:05.642Z,20.7
2017-05-04T01:12:05.454Z,20.7
2017-05-04T01:14:05.478Z,20.7
2017-05-04T01:16:05.513Z,20.7
2017-05-04T01:18:10.562Z,20.7
2017-05-04T01:20:05.268Z,20.7
2017-05-04T01:22:05.326Z,20.7
2017-05-04T01:24:05.068Z,20.7
2017-05-04T01:26:07.321Z,20.7
2017-05-04T01:28:05.679Z,20.7
2017-05-04T01:30:05.213Z,20.7
2017-05-04T01:32:07.498Z,20.7
2017-05-04T01:34:05.643Z,20.7
2017-05-04T01:36:05.549Z,20.7
2017-05-04T01:38:05.275Z,20.7
2017-05-04T01:40:10.311Z,20.7
2017-05-04T01:42:05.051Z,20.7
2017-05-04T01:44:04.729Z,20.7
2017-05-04T01:46:10.898Z,20.7
2017-05-04T01:48:04.673Z,20.7
2017-05-04T01:50:04.997Z,20.7
2017-05-04T01:52:05.436Z,20.7
2017-05-04T01:54:07.718Z,20.7
2017-05-04T01:56:07.553Z,20.7
2017-05-04T01:58:05.591Z,20.7
2017-05-04T02:00:04.816Z,20.7
2017-05-04T02:02:05.828Z,20.7
2017-05-04T02:04:05.889Z,20.7
2017-05-04T02:06:07.132Z,20.7
2017-05-04T02:08:04.888Z,20.7
2017-05-04T02:10:05.714Z,20.7
2017-05-04T02:12:12.985Z,20.7
2017-05-04T02:14:07.243Z,20.7
2017-05-04T02:16:05.743Z,20.7
2017-05-04T02:18:05.424Z,20.7
2017-05-04T02:20:04.653Z,20.7
2017-05-04T02:22:05.451Z,20.7
2017-05-04T02:24:07.684Z,20.7
2017-05-04T02:26:05.359Z,20.7
2017-05-04T02:28:05.640Z,20.7
2017-05-04T02:30:05.321Z,20.7
2017-05-04T02:32:05.003Z,20.7
2017-05-04T02:34:05.047Z,20.7
2017-05-04T02:36:05.316Z,20.7
2017-05-04T02:38:05.544Z,20.7
2017-05-04T02:40:10.615Z,20.7
2017-05-04T02:42:05.328Z,20.7
2017-05-04T02:44:05.035Z,20.7
2017-05-04T02:46:12.428Z,20.7
2017-05-04T02:48:05.124Z,20.7
2017-05-04T02:50:12.741Z,20.7
2017-05-04T02:52:05.843Z,20.7
2017-05-04T02:54:05.537Z,20.7
2017-05-04T02:56:05.301Z,20.7
2017-05-04T02:58:05.110Z,20.7
2017-05-04T03:00:07.310Z,20.7
2017-05-04T03:02:05.110Z,20.7
2017-05-04T03:04:06.169Z,20.7
2017-05-04T03:06:07.584Z,20.7
2017-05-04T03:08:07.831Z,20.7
2017-05-04T03:10:08.183Z,20.7
2017-05-04T03:12:04.895Z,20.7
2017-05-04T03:14:04.677Z,20.7
2017-05-04T03:16:05.719Z,20.7
2017-05-04T03:18:04.635Z,20.7
2017-05-04T03:20:05.311Z,20.7
2017-05-04T03:22:05.347Z,20.7
2017-05-04T03:24:10.170Z,20.7
2017-05-04T03:26:04.933Z,20.7
2017-05-04T03:28:07.511Z,20.7
2017-05-04T03:30:04.696Z,20.7
2017-05-04T03:32:07.912Z,20.7
2017-05-04T03:34:05.908Z,20.7
2017-05-04T03:36:07.157Z,20.7
2017-05-04T03:38:05.242Z,20.7
2017-05-04T03:40:10.105Z,20.7
2017-05-04T03:42:04.857Z,20.7
2017-05-04T03:44:05.563Z,20.7
2017-05-04T03:46:05.579Z,20.7
2017-05-04T03:48:05.341Z,20.7
2017-05-04T03:50:05.113Z,20.7
2017-05-04T03:52:05.647Z,20.7
2017-05-04T03:54:05.523Z,20.7
2017-05-04T03:56:05.229Z,20.7
2017-05-04T03:58:05.027Z,20.7
2017-05-04T04:00:04.826Z,20.7
2017-05-04T04:02:08.189Z,20.7
2017-05-04T04:04:05.135Z,20.7
2017-05-04T04:06:05.396Z,20.7
2017-05-04T04:08:05.139Z,20.7
2017-05-04T04:10:05.381Z,20.7
2017-05-04T04:12:05.156Z,20.7
2017-05-04T04:14:04.949Z,20.7
2017-05-04T04:16:04.762Z,20.7
2017-05-04T04:18:04.713Z,20.7
2017-05-04T04:20:04.795Z,20.7
2017-05-04T04:22:10.911Z,20.7
2017-05-04T04:24:09.708Z,20.7
2017-05-04T04:26:10.716Z,20.7
2017-05-04T04:28:05.231Z,20.7
2017-05-04T04:30:04.963Z,20.7
2017-05-04T04:32:04.693Z,20.7
2017-05-04T04:34:05.697Z,20.7
2017-05-04T04:36:05.456Z,20.6
2017-05-04T04:38:05.098Z,20.6
2017-05-04T04:40:05.120Z,20.6
2017-05-04T04:42:07.497Z,20.6
2017-05-04T04:44:05.205Z,20.6
2017-05-04T04:46:05.109Z,20.6
2017-05-04T04:48:07.369Z,20.6
2017-05-04T04:50:10.756Z,20.6
2017-05-04T04:52:05.331Z,20.6
2017-05-04T04:54:05.141Z,20.6
2017-05-04T04:56:04.849Z,20.6
2017-05-04T04:58:05.877Z,20.6
2017-05-04T05:00:05.319Z,20.6
2017-05-04T05:02:07.527Z,20.6
2017-05-04T05:04:05.555Z,20.6
2017-05-04T05:06:05.245Z,20.6
2017-05-04T05:08:07.732Z,20.6
2017-05-04T05:10:05.721Z,20.6
2017-05-04T05:12:05.692Z,20.6
2017-05-04T05:14:08.225Z,20.5
2017-05-04T05:16:05.259Z,20.6
2017-05-04T05:18:07.695Z,20.5
2017-05-04T05:20:04.952Z,20.5
2017-05-04T05:22:05.674Z,20.5
2017-05-04T05:24:05.360Z,20.5
2017-05-04T05:26:05.064Z,20.5
2017-05-04T05:28:09.777Z,20.5
2017-05-04T05:30:05.600Z,20.5
2017-05-04T05:32:05.355Z,20.5
2017-05-04T05:34:13.495Z,20.5
2017-05-04T05:36:05.234Z,20.5
2017-05-04T05:38:04.954Z,20.5
2017-05-04T05:40:04.939Z,20.5
2017-05-04T05:42:04.731Z,20.5
2017-05-04T05:44:05.445Z,20.5
2017-05-04T05:46:08.078Z,20.5
2017-05-04T05:48:09.853Z,20.4
2017-05-04T05:50:05.646Z,20.5
2017-05-04T05:52:05.641Z,20.5
2017-05-04T05:54:05.315Z,20.5
2017-05-04T05:56:07.512Z,20.5
2017-05-04T05:58:04.984Z,20.4
2017-05-04T06:00:04.675Z,20.5
2017-05-04T06:02:06.234Z,20.5
2017-05-04T06:04:05.097Z,20.4
2017-05-04T06:06:05.385Z,20.4
2017-05-04T06:08:05.085Z,20.4
2017-05-04T06:10:05.672Z,20.4
2017-05-04T06:12:05.359Z,20.4
2017-05-04T06:14:05.594Z,20.4
2017-05-04T06:16:10.073Z,20.5
2017-05-04T06:18:07.661Z,20.4
2017-05-04T06:20:04.866Z,20.4
2017-05-04T06:22:06.685Z,20.5
2017-05-04T06:24:05.368Z,20.4
2017-05-04T06:26:07.667Z,20.4
2017-05-04T06:28:08.050Z,20.4
2017-05-04T06:30:05.343Z,20.4
2017-05-04T06:32:05.596Z,20.5
2017-05-04T06:34:05.587Z,20.4
2017-05-04T06:36:05.308Z,20.5
2017-05-04T06:38:07.585Z,20.5
2017-05-04T06:40:05.599Z,20.5
2017-05-04T06:42:05.306Z,20.5
2017-05-04T06:44:05.047Z,20.5
2017-05-04T06:46:05.098Z,20.5
2017-05-04T06:48:09.820Z,20.4
2017-05-04T06:50:08.168Z,20.4
2017-05-04T06:52:05.250Z,20.4
2017-05-04T06:54:04.979Z,20.4
2017-05-04T06:56:04.695Z,20.4
2017-05-04T06:58:05.306Z,20.4
2017-05-04T07:00:04.987Z,20.4
2017-05-04T07:02:04.654Z,20.4
2017-05-04T07:04:04.999Z,20.4
2017-05-04T07:06:04.847Z,20.4
2017-05-04T07:08:11.964Z,20.4
2017-05-04T07:10:17.804Z,20.4
2017-05-04T07:12:08.083Z,20.4
2017-05-04T07:14:05.015Z,20.4
2017-05-04T07:16:06.001Z,20.4
2017-05-04T07:18:04.965Z,20.4
2017-05-04T07:20:05.598Z,20.4
2017-05-04T07:22:05.494Z,20.4
2017-05-04T07:24:05.202Z,20.4
2017-05-04T07:26:05.831Z,20.4
2017-05-04T07:28:05.291Z,20.4
2017-05-04T07:30:05.258Z,20.4
2017-05-04T07:32:04.967Z,20.4
2017-05-04T07:34:04.898Z,20.4
2017-05-04T07:36:05.547Z,20.4
2017-05-04T07:38:05.120Z,20.4
2017-05-04T07:40:05.574Z,20.4
2017-05-04T07:42:08.125Z,20.4
2017-05-04T07:44:05.065Z,20.4
2017-05-04T07:46:05.499Z,20.4
2017-05-04T07:48:08.056Z,20.4
2017-05-04T07:50:05.968Z,20.4
2017-05-04T07:52:10.684Z,20.4
2017-05-04T07:54:54.225Z,20.4
2017-05-04T07:56:05.502Z,20.4
2017-05-04T07:58:10.418Z,20.4
2017-05-04T08:00:05.428Z,20.4
2017-05-04T08:02:05.404Z,20.4
2017-05-04T08:04:04.985Z,20.4
2017-05-04T08:06:04.715Z,20.4
2017-05-04T08:08:08.225Z,20.4
2017-05-04T08:10:05.161Z,20.4
2017-05-04T08:12:04.880Z,20.4
2017-05-04T08:14:13.182Z,20.4
2017-05-04T08:16:05.698Z,20.4
2017-05-04T08:18:05.579Z,20.4
2017-05-04T08:20:05.266Z,20.4
2017-05-04T08:22:08.027Z,20.4
2017-05-04T08:24:04.686Z,20.4
2017-05-04T08:26:05.480Z,20.4
2017-05-04T08:28:05.032Z,20.4
2017-05-04T08:30:04.750Z,20.4
2017-05-04T08:32:05.456Z,20.4
2017-05-04T08:34:05.632Z,20.4
2017-05-04T08:36:05.621Z,20.4
2017-05-04T08:38:07.889Z,20.4
2017-05-04T08:40:05.748Z,20.4
2017-05-04T08:42:05.765Z,20.4
2017-05-04T08:44:05.029Z,20.4
2017-05-04T08:46:04.829Z,20.4
2017-05-04T08:48:08.074Z,20.4
2017-05-04T08:50:10.415Z,20.4
2017-05-04T08:52:05.476Z,20.4
2017-05-04T08:54:05.179Z,20.4
2017-05-04T08:56:05.433Z,20.4
2017-05-04T08:58:05.994Z,20.4
2017-05-04T09:00:04.747Z,20.4
2017-05-04T09:02:10.600Z,20.4
2017-05-04T09:04:05.428Z,20.4
2017-05-04T09:06:10.166Z,20.4
2017-05-04T09:08:05.409Z,20.4
2017-05-04T09:10:06.010Z,20.4
2017-05-04T09:12:04.737Z,20.4
2017-05-04T09:14:05.580Z,20.4
2017-05-04T09:16:05.541Z,20.4
2017-05-04T09:18:05.485Z,20.5
2017-05-04T09:20:04.738Z,20.4
2017-05-04T09:22:05.915Z,20.5
2017-05-04T09:24:04.649Z,20.5
2017-05-04T09:26:05.356Z,20.5
2017-05-04T09:28:05.205Z,20.4
2017-05-04T09:30:05.744Z,20.5
2017-05-04T09:32:05.497Z,20.5
2017-05-04T09:34:04.965Z,20.5
2017-05-04T09:36:04.653Z,20.5
2017-05-04T09:38:04.906Z,20.4
2017-05-04T09:40:13.360Z,20.4
2017-05-04T09:42:05.037Z,20.4
2017-05-04T09:44:04.729Z,20.5
2017-05-04T09:46:06.481Z,20.4
2017-05-04T09:48:05.436Z,20.4
2017-05-04T09:50:04.673Z,20.3
2017-05-04T09:52:05.520Z,20.3
2017-05-04T09:54:05.256Z,20.3
2017-05-04T09:56:04.931Z,20.3
2017-05-04T09:58:07.235Z,20.1
2017-05-04T10:00:04.952Z,20.2
2017-05-04T10:02:04.839Z,20.1
2017-05-04T10:04:05.864Z,20.1
2017-05-04T10:06:04.693Z,20.1
2017-05-04T10:08:05.427Z,20.1
2017-05-04T10:10:04.937Z,20.1
2017-05-04T10:12:04.705Z,20.1
2017-05-04T10:14:05.410Z,20.1
2017-05-04T10:16:05.435Z,20.1
2017-05-04T10:18:05.218Z,20.1
2017-05-04T10:20:07.437Z,20
2017-05-04T10:22:04.946Z,20.1
2017-05-04T10:24:04.650Z,20.1
2017-05-04T10:26:05.334Z,20
2017-05-04T10:28:05.301Z,20
2017-05-04T10:30:05.661Z,20
2017-05-04T10:32:05.366Z,20
2017-05-04T10:34:06.210Z,20
2017-05-04T10:36:07.511Z,19.9
2017-05-04T10:38:07.731Z,19.8
2017-05-04T10:40:05.707Z,19.8
2017-05-04T10:42:05.458Z,19.8
2017-05-04T10:44:15.308Z,19.8
2017-05-04T10:46:12.812Z,19.8
2017-05-04T10:48:05.572Z,19.8
2017-05-04T10:50:05.466Z,19.7
2017-05-04T10:52:05.523Z,19.7
2017-05-04T10:54:07.908Z,19.7
2017-05-04T10:56:04.705Z,19.7
2017-05-04T10:58:07.855Z,19.8
2017-05-04T11:00:05.583Z,19.8
2017-05-04T11:02:05.391Z,19.8
2017-05-04T11:04:07.983Z,19.8
2017-05-04T11:06:04.973Z,19.8
2017-05-04T11:08:05.401Z,19.9
2017-05-04T11:10:05.213Z,19.9
2017-05-04T11:12:05.505Z,19.9
2017-05-04T11:14:05.258Z,19.9
2017-05-04T11:16:07.850Z,19.9
2017-05-04T11:18:09.933Z,19.9
2017-05-04T11:20:14.753Z,20
2017-05-04T11:22:05.834Z,20
2017-05-04T11:24:05.569Z,20
2017-05-04T11:26:05.315Z,20
2017-05-04T11:28:07.715Z,20
2017-05-04T11:30:05.389Z,20
2017-05-04T11:32:07.762Z,20.1
2017-05-04T11:34:05.274Z,20.1
2017-05-04T11:36:04.954Z,20.1
2017-05-04T11:38:04.793Z,20.1
2017-05-04T11:40:05.799Z,20.1
2017-05-04T11:42:05.615Z,20.1
2017-05-04T11:44:05.494Z,20.1
2017-05-04T11:46:07.721Z,20.1
2017-05-04T11:48:04.745Z,20.1
2017-05-04T11:50:05.416Z,20.1
2017-05-04T11:52:05.522Z,20.1
2017-05-04T11:54:05.366Z,20.2
2017-05-04T11:56:04.644Z,20.2
2017-05-04T11:58:07.535Z,20.1
2017-05-04T12:00:05.292Z,20.2
2017-05-04T12:02:05.022Z,20.1
2017-05-04T12:04:10.743Z,20.2
2017-05-04T12:06:08.136Z,20.2
2017-05-04T12:08:04.898Z,20.2
2017-05-04T12:10:05.566Z,20.2
2017-05-04T12:12:10.507Z,20.2
2017-05-04T12:14:05.188Z,20.2
2017-05-04T12:16:07.696Z,20.2
2017-05-04T12:18:05.621Z,20.2
2017-05-04T12:20:05.392Z,20.2
2017-05-04T12:22:05.384Z,20.2
2017-05-04T12:24:05.137Z,20.2
2017-05-04T12:26:08.263Z,20.2
2017-05-04T12:28:05.411Z,20.2
2017-05-04T12:30:05.120Z,20.2
2017-05-04T12:32:04.648Z,20.2
2017-05-04T12:34:05.580Z,20.2
2017-05-04T12:36:07.815Z,20.2
2017-05-04T12:38:08.050Z,20.2
2017-05-04T12:40:05.020Z,20.2
2017-05-04T12:42:05.048Z,20.2
2017-05-04T12:44:04.744Z,20.2
2017-05-04T12:46:06.515Z,20.2
2017-05-04T12:48:05.208Z,20.2
2017-05-04T12:50:07.524Z,20.2
2017-05-04T12:52:12.960Z,20.3
2017-05-04T12:54:09.717Z,20.3
2017-05-04T12:56:05.386Z,20.3
2017-05-04T12:58:05.430Z,20.3
2017-05-04T13:00:07.895Z,20.3
2017-05-04T13:02:05.561Z,20.3
2017-05-04T13:04:05.142Z,20.3
2017-05-04T13:06:07.426Z,20.3
2017-05-04T13:08:04.721Z,20.3
2017-05-04T13:10:10.160Z,20.4
2017-05-04T13:12:04.857Z,20.4
2017-05-04T13:14:10.935Z,20.3
2017-05-04T13:16:05.017Z,20.4
2017-05-04T13:18:04.899Z,20.4
2017-05-04T13:20:12.395Z,20.4
2017-05-04T13:22:05.456Z,20.4
2017-05-04T13:24:04.740Z,20.4
2017-05-04T13:26:05.460Z,20.4
2017-05-04T13:28:13.026Z,20.4
2017-05-04T13:30:04.812Z,20.4
2017-05-04T13:32:05.755Z,20.4
2017-05-04T13:34:05.720Z,20.4
2017-05-04T13:36:05.461Z,20.4
2017-05-04T13:38:07.700Z,20.4
2017-05-04T13:40:05.301Z,20.4
2017-05-04T13:42:15.137Z,20.4
2017-05-04T13:44:09.956Z,20.4
2017-05-04T13:46:10.567Z,20.4
2017-05-04T13:48:05.254Z,20.4
2017-05-04T13:50:04.958Z,20.4
2017-05-04T13:52:05.240Z,20.4
2017-05-04T13:54:05.005Z,20.4
2017-05-04T13:56:04.659Z,20.4
2017-05-04T13:58:05.739Z,20.4
2017-05-04T14:00:05.460Z,20.5
2017-05-04T14:02:06.407Z,20.4
2017-05-04T14:04:04.884Z,20.5
2017-05-04T14:06:08.091Z,20.4
2017-05-04T14:08:05.020Z,20.4
2017-05-04T14:10:05.665Z,20.5
2017-05-04T14:12:05.453Z,20.4
2017-05-04T14:14:05.212Z,20.4
2017-05-04T14:16:04.803Z,20.4
2017-05-04T14:18:04.903Z,20.4
2017-05-04T14:20:04.636Z,20.4
2017-05-04T14:22:08.213Z,20.4
2017-05-04T14:24:05.404Z,20.4
2017-05-04T14:26:05.370Z,20.4
2017-05-04T14:28:15.088Z,20.4
2017-05-04T14:30:04.998Z,20.4
2017-05-04T14:32:04.765Z,20.4
2017-05-04T14:34:05.728Z,20.4
2017-05-04T14:36:05.386Z,20.5
2017-05-04T14:38:05.054Z,20.5
2017-05-04T14:40:05.108Z,20.5
2017-05-04T14:42:09.866Z,20.4
2017-05-04T14:44:05.541Z,20.4
2017-05-04T14:46:05.070Z,20.4
2017-05-04T14:48:04.997Z,20.4
2017-05-04T14:50:04.843Z,20.4
2017-05-04T14:52:05.844Z,20.4
2017-05-04T14:54:05.604Z,20.4
2017-05-04T14:56:05.414Z,20.4
2017-05-04T14:58:05.220Z,20.4
2017-05-04T15:00:04.950Z,20.4
2017-05-04T15:02:04.731Z,20.4
2017-05-04T15:04:05.671Z,20.4
2017-05-04T15:06:05.615Z,20.4
2017-05-04T15:08:05.421Z,20.4
2017-05-04T15:10:05.027Z,20.4
2017-05-04T15:12:04.783Z,20.4
2017-05-04T15:14:08.004Z,20.4
2017-05-04T15:16:05.043Z,20.4
2017-05-04T15:18:07.499Z,20.4
2017-05-04T15:20:04.867Z,20.4
2017-05-04T15:22:05.695Z,20.4
2017-05-04T15:24:05.456Z,20.4
2017-05-04T15:26:05.277Z,20.4
2017-05-04T15:28:05.713Z,20.4
2017-05-04T15:30:05.396Z,20.4
2017-05-04T15:32:08.192Z,20.5
2017-05-04T15:34:07.728Z,20.5
2017-05-04T15:36:18.202Z,20.5
2017-05-04T15:38:05.221Z,20.4
2017-05-04T15:40:05.323Z,20.4
2017-05-04T15:42:05.041Z,20.4
2017-05-04T15:44:05.269Z,20.4
2017-05-04T15:46:05.045Z,20.4
2017-05-04T15:48:04.734Z,20.4
2017-05-04T15:50:05.450Z,20.4
2017-05-04T15:52:05.439Z,20.4
2017-05-04T15:54:05.444Z,20.4
2017-05-04T15:56:05.164Z,20.4
2017-05-04T15:58:05.279Z,20.4
2017-05-04T16:00:04.934Z,20.4
2017-05-04T16:02:05.593Z,20.4
2017-05-04T16:04:05.865Z,20.4
2017-05-04T16:06:05.545Z,20.4
2017-05-04T16:08:05.249Z,20.4
2017-05-04T16:10:05.203Z,20.4
2017-05-04T16:12:04.907Z,20.4
2017-05-04T16:14:05.630Z,20.4
2017-05-04T16:16:07.774Z,20.4
2017-05-04T16:18:04.726Z,20.4
2017-05-04T16:20:10.478Z,20.4
2017-05-04T16:22:05.088Z,20.4
2017-05-04T16:24:04.802Z,20.4
2017-05-04T16:26:05.799Z,20.4
2017-05-04T16:28:05.704Z,20.4
2017-05-04T16:30:05.377Z,20.4
2017-05-04T16:32:04.658Z,20.4
2017-05-04T16:34:05.319Z,20.4
2017-05-04T16:36:05.657Z,20.4
2017-05-04T16:38:07.933Z,20.4
2017-05-04T16:40:04.948Z,20.4
2017-05-04T16:42:05.493Z,20.4
2017-05-04T16:44:04.723Z,20.4
2017-05-04T16:46:05.745Z,20.4
2017-05-04T16:48:08.038Z,20.4
2017-05-04T16:50:07.365Z,20.4
2017-05-04T16:52:04.887Z,20.4
2017-05-04T16:54:05.415Z,20.4
2017-05-04T16:56:05.220Z,20.4
2017-05-04T16:58:05.301Z,20.4
2017-05-04T17:00:05.009Z,20.4
2017-05-04T17:02:04.707Z,20.4
2017-05-04T17:04:05.094Z,20.4
2017-05-04T17:06:07.362Z,20.4
2017-05-04T17:08:04.615Z,20.4
2017-05-04T17:10:07.529Z,20.4
2017-05-04T17:12:05.272Z,20.4
2017-05-04T17:14:05.198Z,20.4
2017-05-04T17:16:05.237Z,20.4
2017-05-04T17:18:05.237Z,20.4
2017-05-04T17:20:04.947Z,20.4
2017-05-04T17:22:04.893Z,20.4
2017-05-04T17:24:05.577Z,20.4
2017-05-04T17:26:04.891Z,20.4
2017-05-04T17:28:07.408Z,20.4
2017-05-04T17:30:06.206Z,20.4
2017-05-04T17:32:04.984Z,20.4
2017-05-04T17:34:04.811Z,20.4
2017-05-04T17:36:05.520Z,20.4
2017-05-04T17:38:05.282Z,20.4
2017-05-04T17:40:05.280Z,20.4
2017-05-04T17:42:07.511Z,20.4
2017-05-04T17:44:05.300Z,20.4
2017-05-04T17:46:05.325Z,20.4
2017-05-04T17:48:05.020Z,20.4
2017-05-04T17:50:04.748Z,20.4
2017-05-04T17:52:06.360Z,20.4
2017-05-04T17:54:07.205Z,20.4
2017-05-04T17:56:04.953Z,20.4
2017-05-04T17:58:05.006Z,20.4
2017-05-04T18:00:05.295Z,20.4
2017-05-04T18:02:05.153Z,20.4
2017-05-04T18:04:05.637Z,20.4
2017-05-04T18:06:05.314Z,20.4
2017-05-04T18:08:07.612Z,20.4
2017-05-04T18:10:07.734Z,20.4
2017-05-04T18:12:07.940Z,20.4
2017-05-04T18:14:07.131Z,20.4
2017-05-04T18:16:05.910Z,20.4
2017-05-04T18:18:05.176Z,20.4
2017-05-04T18:20:08.007Z,20.4
2017-05-04T18:22:05.072Z,20.4
2017-05-04T18:24:04.715Z,20.4
2017-05-04T18:26:07.505Z,20.4
2017-05-04T18:28:05.585Z,20.4
2017-05-04T18:30:10.428Z,20.4
2017-05-04T18:32:05.113Z,20.4
2017-05-04T18:34:05.669Z,20.4
2017-05-04T18:36:05.428Z,20.4
2017-05-04T18:38:05.283Z,20.4
2017-05-04T18:40:05.386Z,20.4
2017-05-04T18:42:05.192Z,20.4
2017-05-04T18:44:09.964Z,20.4
2017-05-04T18:46:05.571Z,20.4
2017-05-04T18:48:10.369Z,20.4
2017-05-04T18:50:05.990Z,20.4
2017-05-04T18:52:05.144Z,20.4
2017-05-04T18:54:05.313Z,20.4
2017-05-04T18:56:05.079Z,20.4
2017-05-04T18:58:06.534Z,20.4
2017-05-04T19:00:04.730Z,20.4
2017-05-04T19:02:05.437Z,20.4
2017-05-04T19:04:05.152Z,20.4
2017-05-04T19:06:05.020Z,20.4
2017-05-04T19:08:04.775Z,20.3
2017-05-04T19:10:10.503Z,20.4
2017-05-04T19:12:05.168Z,20.3
2017-05-04T19:14:04.893Z,20.4
2017-05-04T19:16:05.906Z,20.3
2017-05-04T19:18:04.867Z,20.3
2017-05-04T19:20:05.562Z,20.3
2017-05-04T19:22:05.689Z,20.3
2017-05-04T19:24:05.021Z,20.3
2017-05-04T19:26:04.739Z,20.4
2017-05-04T19:28:10.852Z,20.3
2017-05-04T19:30:05.059Z,20.4
2017-05-04T19:32:04.757Z,20.3
2017-05-04T19:34:05.578Z,20.4
2017-05-04T19:36:05.349Z,20.3
2017-05-04T19:38:07.982Z,20.3
2017-05-04T19:40:05.459Z,20.4
2017-05-04T19:42:05.715Z,20.3
2017-05-04T19:44:07.595Z,20.4
2017-05-04T19:46:05.422Z,20.3
2017-05-04T19:48:07.212Z,20.3
2017-05-04T19:50:05.548Z,20.3
2017-05-04T19:52:05.795Z,20.4
2017-05-04T19:54:05.847Z,20.4
2017-05-04T19:56:05.539Z,20.3
2017-05-04T19:58:07.905Z,20.3
2017-05-04T20:00:05.600Z,20.3
2017-05-04T20:02:05.284Z,20.4
2017-05-04T20:04:05.099Z,20.3
2017-05-04T20:06:04.854Z,20.3
2017-05-04T20:08:05.686Z,20.4
2017-05-04T20:10:05.721Z,20.3
2017-05-04T20:12:05.511Z,20.3
2017-05-04T20:14:05.270Z,20.3
2017-05-04T20:16:05.040Z,20.3
2017-05-04T20:18:04.967Z,20.3
2017-05-04T20:20:09.734Z,20.3
2017-05-04T20:22:12.881Z,20.3
2017-05-04T20:24:05.654Z,20.3
2017-05-04T20:26:08.218Z,20.4
2017-05-04T20:28:07.730Z,20.3
2017-05-04T20:30:05.160Z,20.3
2017-05-04T20:32:04.950Z,20.4
2017-05-04T20:34:04.856Z,20.3
2017-05-04T20:36:09.097Z,20.3
2017-05-04T20:38:04.877Z,20.3
2017-05-04T20:40:05.386Z,20.3
2017-05-04T20:42:05.265Z,20.3
2017-05-04T20:44:08.116Z,20.3
2017-05-04T20:46:05.752Z,20.4
2017-05-04T20:48:07.243Z,20.3
2017-05-04T20:50:04.947Z,20.3
2017-05-04T20:52:04.904Z,20.3
2017-05-04T20:54:05.582Z,20.4
2017-05-04T20:56:06.511Z,20.4
2017-05-04T20:58:05.700Z,20.4
2017-05-04T21:00:05.399Z,20.3
2017-05-04T21:02:05.106Z,20.3
2017-05-04T21:04:05.496Z,20.3
2017-05-04T21:06:07.710Z,20.4
2017-05-04T21:08:07.512Z,20.3
2017-05-04T21:10:08.077Z,20.3
2017-05-04T21:12:04.815Z,20.3
2017-05-04T21:14:08.342Z,20.3
2017-05-04T21:16:05.194Z,20.3
2017-05-04T21:18:05.322Z,20.3
2017-05-04T21:20:07.531Z,20.3
2017-05-04T21:22:10.530Z,20.3
2017-05-04T21:24:05.217Z,20.3
2017-05-04T21:26:04.941Z,20.4
2017-05-04T21:28:04.789Z,20.3
2017-05-04T21:30:05.618Z,20.3
2017-05-04T21:32:05.283Z,20.3
2017-05-04T21:34:05.767Z,20.3
2017-05-04T21:36:05.641Z,20.3
2017-05-04T21:38:08.023Z,20.3
2017-05-04T21:40:10.084Z,20.3
2017-05-04T21:42:07.294Z,20.3
2017-05-04T21:44:07.510Z,20.3
2017-05-04T21:46:05.464Z,20.3
2017-05-04T21:48:05.187Z,20.3
2017-05-04T21:50:04.910Z,20.3
2017-05-04T21:52:04.747Z,20.3
2017-05-04T21:54:05.219Z,20.3
2017-05-04T21:56:09.986Z,20.3
2017-05-04T21:58:04.967Z,20.3
2017-05-04T22:00:04.678Z,20.4
2017-05-04T22:02:05.392Z,20.3
2017-05-04T22:04:08.133Z,20.3
2017-05-04T22:06:04.913Z,20.3
2017-05-04T22:08:08.116Z,20.3
2017-05-04T22:10:12.503Z,20.3
2017-05-04T22:12:05.149Z,20.3
2017-05-04T22:14:04.881Z,20.3
2017-05-04T22:16:05.722Z,20.3
2017-05-04T22:18:05.595Z,20.3
2017-05-04T22:20:07.908Z,20.3
2017-05-04T22:22:04.935Z,20.3
2017-05-04T22:24:04.835Z,20.3
2017-05-04T22:26:05.615Z,20.3
2017-05-04T22:28:05.525Z,20.3
2017-05-04T22:30:05.192Z,20.3
2017-05-04T22:32:07.408Z,20.3
2017-05-04T22:34:05.360Z,20.3
2017-05-04T22:36:05.449Z,20.3
2017-05-04T22:38:05.382Z,20.3
2017-05-04T22:40:07.786Z,20.3
2017-05-04T22:42:07.572Z,20.3
2017-05-04T22:44:05.303Z,20.3
2017-05-04T22:46:05.807Z,20.3
2017-05-04T22:48:08.100Z,20.3
2017-05-04T22:50:07.945Z,20.3
2017-05-04T22:52:14.698Z,20.3
2017-05-04T22:54:05.413Z,20.3
2017-05-04T22:56:05.094Z,20.3
2017-05-04T22:58:05.637Z,20.3
2017-05-04T23:00:04.925Z,20.3
2017-05-04T23:02:04.666Z,20.3
2017-05-04T23:04:05.641Z,20.3
2017-05-04T23:06:05.657Z,20.3
2017-05-04T23:08:07.426Z,20.3
2017-05-04T23:10:05.018Z,20.3
2017-05-04T23:12:07.224Z,20.3
2017-05-04T23:14:04.914Z,20.3
2017-05-04T23:16:05.884Z,20.3
2017-05-04T23:18:05.074Z,20.3
2017-05-04T23:20:04.750Z,20.3
2017-05-04T23:22:06.345Z,20.3
2017-05-04T23:24:05.541Z,20.3
2017-05-04T23:26:04.752Z,20.3
2017-05-04T23:28:05.257Z,20.3
2017-05-04T23:30:04.984Z,20.3
2017-05-04T23:32:09.838Z,20.3
2017-05-04T23:34:05.712Z,20.3
2017-05-04T23:36:05.440Z,20.3
2017-05-04T23:38:05.441Z,20.3
2017-05-04T23:40:05.287Z,20.3
2017-05-04T23:42:05.004Z,20.3
2017-05-04T23:44:04.671Z,20.3
2017-05-04T23:46:05.474Z,20.3
2017-05-04T23:48:05.143Z,20.3
2017-05-04T23:50:04.864Z,20.3
2017-05-04T23:52:05.863Z,20.3
2017-05-04T23:54:05.784Z,20.3
2017-05-04T23:56:10.549Z,20.3
2017-05-04T23:58:08.125Z,20.3
